Time;durP1;ratioP1;P1;durP2;ratioP2;P2;SDS_P1;SDS_P2;PMS_P1;PMS_P2;Temp;Humidity;BMP_temperature;BMP_pressure;BME280_temperature;BME280_humidity;BME280_pressure;Samples;Min_cycle;Max_cycle;Signal;HPM_P1;HPM_P2
2023/10/13 00:01:42;;;;;;;0.20;0.20;;;;;;;19.42;100.00;100720.59;5057698;28;19912;-92
2023/10/13 00:04:08;;;;;;;0.20;0.20;;;;;;;19.51;100.00;100723.78;5056522;28;20087;-92
2023/10/13 00:06:33;;;;;;;0.20;0.20;;;;;;;19.28;100.00;100702.53;5055101;28;20025;-91
2023/10/13 00:08:59;;;;;;;0.20;0.20;;;;;;;19.45;100.00;100731.88;5054473;28;20048;-92
2023/10/13 00:11:26;;;;;;;0.20;0.20;;;;;;;19.40;100.00;100732.31;5054602;28;20120;-92
2023/10/13 00:13:53;;;;;;;0.20;0.20;;;;;;;19.41;100.00;100727.47;5054994;28;20021;-93
2023/10/13 00:16:27;;;;;;;0.20;0.20;;;;;;;19.45;100.00;100742.38;5054077;28;20112;-92
2023/10/13 00:18:57;;;;;;;0.20;0.20;;;;;;;19.45;100.00;100734.69;5054585;28;20035;-92
2023/10/13 00:21:33;;;;;;;0.20;0.20;;;;;;;19.45;100.00;100728.25;5054611;28;20025;-93
2023/10/13 00:24:05;;;;;;;0.20;0.20;;;;;;;19.49;100.00;100726.19;5054801;28;20025;-93
2023/10/13 00:26:35;;;;;;;0.20;0.20;;;;;;;19.42;100.00;100720.59;5055310;28;20032;-92
2023/10/13 00:29:28;;;;;;;0.20;0.20;;;;;;;19.39;100.00;100710.94;5053888;28;20481;-92
2023/10/13 00:31:54;;;;;;;0.20;0.20;;;;;;;19.42;100.00;100698.81;5054152;28;20060;-91
2023/10/13 00:34:25;;;;;;;0.20;0.20;;;;;;;19.34;100.00;100703.72;5054040;28;20408;-92
2023/10/13 00:39:36;;;;;;;0.20;0.20;;;;;;;19.58;100.00;100732.19;5054026;28;20090;-92
2023/10/13 00:42:07;;;;;;;0.20;0.20;;;;;;;19.51;100.00;100723.78;5053667;28;20029;-91
2023/10/13 00:44:43;;;;;;;0.20;0.20;;;;;;;19.60;100.00;100732.63;5054051;28;20048;-93
2023/10/13 00:47:10;;;;;;;0.20;0.20;;;;;;;19.29;100.00;100675.94;5054554;28;20025;-92
2023/10/13 00:49:39;;;;;;;0.20;0.20;;;;;;;19.71;100.00;100727.75;5053578;28;20468;-92
2023/10/13 00:52:10;;;;;;;0.20;0.20;;;;;;;19.64;100.00;100713.66;5055247;28;20021;-91
2023/10/13 00:54:37;;;;;;;0.20;0.20;;;;;;;19.68;100.00;100717.25;5054051;28;20503;-92
2023/10/13 00:57:26;;;;;;;0.20;0.20;;;;;;;19.75;100.00;100722.84;5039889;28;20025;-91
2023/10/13 00:59:53;;;;;;;0.20;0.20;;;;;;;19.77;100.00;100726.09;5034013;28;20128;-92
2023/10/13 01:02:55;;;;;;;0.20;0.20;;;;;;;19.65;100.00;100701.13;5034076;28;20080;-92
2023/10/13 01:05:19;;;;;;;0.20;0.20;;;;;;;19.85;100.00;100738.13;5034521;28;20064;-92
2023/10/13 01:07:50;;;;;;;0.20;0.20;;;;;;;19.94;100.00;100740.50;5033535;28;20025;-92
2023/10/13 01:10:16;;;;;;;0.20;0.20;;;;;;;19.82;100.00;100722.84;5033738;28;20021;-91
2023/10/13 01:12:45;;;;;;;0.20;0.20;;;;;;;19.94;100.00;100740.50;5033849;28;20040;-91
2023/10/13 01:15:16;;;;;;;0.20;0.20;;;;;;;19.88;100.00;100731.66;5033669;28;20060;-92
2023/10/13 01:17:44;;;;;;;0.20;0.20;;;;;;;19.93;100.00;100733.25;5033496;28;20018;-92
2023/10/13 01:20:12;;;;;;;0.20;0.20;;;;;;;19.86;100.00;100729.22;5033890;28;20064;-92
2023/10/13 01:22:38;;;;;;;0.20;0.20;;;;;;;19.91;100.00;100741.31;5034106;28;20029;-93
2023/10/13 01:25:07;;;;;;;0.20;0.20;;;;;;;19.83;100.00;100732.91;5034461;28;20029;-90
2023/10/13 01:27:38;;;;;;;0.20;0.20;;;;;;;19.93;100.00;100747.38;5052097;28;20114;-93
2023/10/13 01:30:13;;;;;;;0.20;0.20;;;;;;;20.01;100.00;100752.53;5053889;28;20133;-91
2023/10/13 01:32:40;;;;;;;0.20;0.20;;;;;;;20.09;100.00;100754.13;5054861;28;20036;-93
2023/10/13 01:35:07;;;;;;;0.20;0.20;;;;;;;20.06;100.00;100751.31;5054357;28;20090;-91
2023/10/13 01:37:33;;;;;;;0.20;0.20;;;;;;;20.07;100.00;100750.09;5053638;28;20119;-93
2023/10/13 01:39:58;;;;;;;0.20;0.20;;;;;;;19.96;100.00;100738.84;5052893;28;20128;-92
2023/10/13 01:42:24;;;;;;;0.20;0.20;;;;;;;20.08;100.00;100751.69;5052865;28;20029;-91
2023/10/13 01:44:50;;;;;;;0.20;0.20;;;;;;;20.10;100.00;100754.91;5052525;28;20039;-91
2023/10/13 01:47:17;;;;;;;0.20;0.20;;;;;;;20.09;100.00;100758.97;5053047;28;20029;-91
2023/10/13 01:49:47;;;;;;;0.20;0.20;;;;;;;20.14;100.00;100750.06;5035337;28;20025;-91
2023/10/13 01:52:16;;;;;;;0.20;0.20;;;;;;;20.13;100.00;100756.91;5033026;28;20017;-91
2023/10/13 01:54:48;;;;;;;0.20;0.20;;;;;;;20.10;100.00;100743.63;5033590;28;20253;-90
2023/10/13 01:57:17;;;;;;;0.20;0.20;;;;;;;20.13;100.00;100742.78;5050386;28;20047;-91
2023/10/13 01:59:44;;;;;;;0.20;0.20;;;;;;;20.12;100.00;100750.44;5053088;28;20025;-92
2023/10/13 02:02:12;;;;;;;0.20;0.20;;;;;;;20.09;100.00;100751.28;5053266;28;20032;-92
2023/10/13 02:05:00;;;;;;;0.20;0.20;;;;;;;20.14;100.00;100750.06;5053585;28;20388;-91
2023/10/13 02:07:34;;;;;;;0.20;0.20;;;;;;;20.03;100.00;100743.69;5055001;28;20059;-92
2023/10/13 02:10:04;;;;;;;0.20;0.20;;;;;;;20.07;100.00;100750.88;5063599;28;20074;-91
2023/10/13 02:12:36;;;;;;;0.20;0.20;;;;;;;20.09;100.00;100756.13;5060996;28;20033;-91
2023/10/13 02:15:04;;;;;;;0.20;0.20;;;;;;;20.12;100.00;100752.47;5055883;28;20085;-93
2023/10/13 02:17:40;;;;;;;0.20;0.20;;;;;;;20.10;100.00;100740.78;5055234;28;20045;-92
2023/10/13 02:20:14;;;;;;;0.20;0.20;;;;;;;19.99;100.00;100732.41;5054279;28;20395;-91
2023/10/13 02:22:49;;;;;;;0.20;0.20;;;;;;;19.97;100.00;100731.19;5057097;28;20025;-91
2023/10/13 02:25:35;;;;;;;0.20;0.20;;;;;;;20.04;100.00;100733.97;5060007;28;20012;-91
2023/10/13 02:28:02;;;;;;;0.20;0.20;;;;;;;19.95;100.00;100725.97;5056799;28;20029;-90
2023/10/13 02:30:27;;;;;;;0.20;0.20;;;;;;;20.06;100.00;100740.00;5056396;28;20082;-90
2023/10/13 02:32:53;;;;;;;0.20;0.20;;;;;;;20.00;100.00;100738.84;5056384;28;20033;-90
2023/10/13 02:35:29;;;;;;;0.20;0.20;;;;;;;20.03;100.00;100743.69;5056300;28;20075;-91
2023/10/13 02:37:56;;;;;;;0.20;0.20;;;;;;;19.98;100.00;100736.44;5056164;28;20055;-92
2023/10/13 02:40:23;;;;;;;0.20;0.20;;;;;;;19.86;100.00;100725.59;5055807;28;20068;-91
2023/10/13 02:42:49;;;;;;;0.20;0.20;;;;;;;19.92;100.00;100742.91;5056256;28;20032;-91
2023/10/13 02:45:15;;;;;;;0.13;0.13;;;;;;;19.83;100.00;100730.06;5056925;28;20028;-91
2023/10/13 02:47:43;;;;;;;0.20;0.20;;;;;;;19.68;100.00;100725.72;5055750;28;20083;-91
2023/10/13 02:50:12;;;;;;;0.20;0.20;;;;;;;19.82;100.00;100744.63;5064183;28;20033;-93
2023/10/13 02:52:41;;;;;;;0.20;0.20;;;;;;;19.75;100.00;100742.63;5056297;28;20017;-93
2023/10/13 02:55:13;;;;;;;0.20;0.20;;;;;;;19.74;100.00;100743.84;5055612;28;20087;-94
2023/10/13 02:57:40;;;;;;;0.20;0.20;;;;;;;19.63;100.00;100743.91;5055668;28;20020;-93
2023/10/13 03:00:12;;;;;;;0.20;0.20;;;;;;;19.55;100.00;100742.31;5056062;28;20162;-93
2023/10/13 03:02:44;;;;;;;0.20;0.20;;;;;;;19.48;100.00;100735.88;5062935;28;20008;-92
2023/10/13 03:05:09;;;;;;;0.20;0.20;;;;;;;19.38;100.00;100727.03;5042912;28;20091;-93
2023/10/13 03:07:36;;;;;;;0.20;0.20;;;;;;;19.19;100.00;100724.72;5055426;28;20024;-92
2023/10/13 03:10:11;;;;;;;0.20;0.20;;;;;;;18.98;100.00;100703.03;5054792;28;20025;-92
2023/10/13 03:12:37;;;;;;;0.20;0.20;;;;;;;18.90;100.00;100689.38;5055408;28;20079;-93
2023/10/13 03:15:20;;;;;;;0.20;0.20;;;;;;;19.25;100.00;100733.56;5055959;28;20236;-93
2023/10/13 03:17:46;;;;;;;0.20;0.20;;;;;;;19.06;100.00;100704.63;5055343;28;20469;-92
2023/10/13 03:20:16;;;;;;;0.20;0.20;;;;;;;19.24;100.00;100726.31;5056423;28;20028;-92
2023/10/13 03:22:45;;;;;;;0.20;0.20;;;;;;;19.17;100.00;100727.13;5056185;28;20120;-92
2023/10/13 03:25:17;;;;;;;0.20;0.20;;;;;;;19.21;100.00;100727.94;5054233;28;20037;-93
2023/10/13 03:30:15;;;;;;;0.20;0.20;;;;;;;19.14;100.00;100722.31;5056346;28;20027;-93
2023/10/13 03:32:47;;;;;;;0.20;0.20;;;;;;;19.20;100.00;100726.34;5056343;28;20125;-92
2023/10/13 03:35:24;;;;;;;0.20;0.20;;;;;;;19.06;100.00;100703.81;5050358;28;20025;-93
2023/10/13 03:37:54;;;;;;;0.20;0.20;;;;;;;19.18;100.00;100723.13;5054967;28;20037;-94
2023/10/13 03:43:06;;;;;;;0.20;0.20;;;;;;;19.17;100.00;100727.13;5055426;28;20029;-92
2023/10/13 03:45:39;;;;;;;0.20;0.20;;;;;;;19.14;100.00;100727.97;5054224;28;20134;-93
2023/10/13 03:51:14;;;;;;;0.20;0.20;;;;;;;19.10;100.00;100727.16;5056348;28;20554;-92
2023/10/13 03:53:54;;;;;;;0.20;0.20;;;;;;;19.10;100.00;100724.34;5057815;28;20032;-94
2023/10/13 03:56:26;;;;;;;0.20;0.20;;;;;;;19.07;100.00;100730.81;5055607;28;20396;-91
2023/10/13 03:59:35;;;;;;;0.20;0.20;;;;;;;19.08;100.00;100733.22;5056666;28;20122;-93
2023/10/13 04:02:02;;;;;;;0.20;0.20;;;;;;;18.93;100.00;100719.56;5061490;28;20395;-93
2023/10/13 04:17:29;;;;;;;0.20;0.20;;;;;;;18.74;100.00;100721.63;5070236;28;20142;-94
2023/10/13 04:36:36;;;;;;;0.20;0.20;;;;;;;18.72;100.00;100724.03;5034910;28;20091;-92
2023/10/13 04:41:32;;;;;;;0.20;0.20;;;;;;;18.77;100.00;100720.00;5035381;28;20034;-92
2023/10/13 04:44:05;;;;;;;0.20;0.20;;;;;;;18.86;100.00;100716.78;5053510;28;20082;-93
2023/10/13 04:49:28;;;;;;;0.20;0.20;;;;;;;18.75;100.00;100726.06;5054060;28;20090;-93
2023/10/13 04:52:12;;;;;;;0.20;0.20;;;;;;;18.83;100.00;100727.66;5052996;28;20504;-92
2023/10/13 06:30:38;;;;;;;0.20;0.20;;;;;;;23.76;90.74;100832.50;5037779;28;20099;-93
2023/10/13 06:33:04;;;;;;;0.20;0.20;;;;;;;23.19;93.10;100850.63;5038509;28;20116;-93
2023/10/13 06:35:31;;;;;;;0.20;0.20;;;;;;;23.21;94.38;100843.28;5049408;28;20017;-93
2023/10/13 06:38:00;;;;;;;0.20;0.20;;;;;;;22.93;95.79;100838.91;5053917;28;20059;-92
2023/10/13 06:40:25;;;;;;;0.20;0.20;;;;;;;22.69;97.86;100840.09;5038513;28;20087;-94
2023/10/13 06:42:54;;;;;;;0.20;0.20;;;;;;;22.52;99.46;100852.53;5039098;28;20116;-92
2023/10/13 06:45:21;;;;;;;0.20;0.20;;;;;;;22.68;98.46;100832.84;5035702;28;20115;-90
2023/10/13 06:47:46;;;;;;;0.20;0.20;;;;;;;23.07;97.11;100845.59;5035908;28;20025;-91
2023/10/13 06:50:16;;;;;;;0.20;0.20;;;;;;;23.28;94.85;100853.72;5034624;28;20030;-90
2023/10/13 06:52:49;;;;;;;0.20;0.20;;;;;;;23.04;97.12;100849.28;5034878;28;20053;-91
2023/10/13 06:55:23;;;;;;;0.20;0.20;;;;;;;23.83;93.50;100857.13;5035653;28;20045;-91
2023/10/13 06:57:49;;;;;;;0.20;0.20;;;;;;;23.81;93.70;100851.06;5034680;28;20052;-90
2023/10/13 07:00:29;;;;;;;0.20;0.20;;;;;;;23.49;96.00;100864.66;5034389;28;20040;-89
2023/10/13 07:03:05;;;;;;;0.20;0.20;;;;;;;24.26;91.43;100865.50;5035563;28;20036;-90
2023/10/13 07:05:34;;;;;;;0.20;0.20;;;;;;;24.10;91.67;100859.78;5035963;28;20033;-90
2023/10/13 07:08:01;;;;;;;0.20;0.20;;;;;;;23.87;93.77;100861.50;5035884;28;20052;-91
2023/10/13 07:10:29;;;;;;;0.20;0.20;;;;;;;23.88;93.45;100839.56;5037392;28;20461;-91
2023/10/13 07:12:59;;;;;;;0.20;0.20;;;;;;;23.84;95.21;100862.34;5038887;28;20029;-89
2023/10/13 07:15:27;;;;;;;0.20;0.20;;;;;;;23.23;100.00;100857.06;5041345;28;20032;-89
2023/10/13 07:17:59;;;;;;;0.20;0.20;;;;;;;23.24;100.00;100844.47;5047925;28;20029;-92
2023/10/13 07:23:17;;;;;;;0.20;0.20;;;;;;;22.67;100.00;100848.25;5044194;28;20603;-91
2023/10/13 07:26:02;;;;;;;0.20;0.20;;;;;;;23.01;100.00;100868.00;5054624;28;20555;-92
2023/10/13 07:28:28;;;;;;;0.20;0.20;;;;;;;23.16;100.00;100862.84;5074595;28;20028;-91
2023/10/13 07:33:22;;;;;;;0.20;0.20;;;;;;;23.33;100.00;100849.56;5075106;28;20033;-90
2023/10/13 07:35:58;;;;;;;0.20;0.20;;;;;;;23.91;97.75;100878.44;5073955;28;20130;-90
2023/10/13 07:38:24;;;;;;;0.20;0.20;;;;;;;24.52;92.05;100878.75;5073772;28;20059;-91
2023/10/13 07:40:52;;;;;;;0.20;0.20;;;;;;;24.14;95.03;100886.09;5073347;28;20056;-91
2023/10/13 07:43:21;;;;;;;0.20;0.20;;;;;;;23.96;96.10;100875.91;5074167;28;20021;-91
2023/10/13 07:45:51;;;;;;;0.20;0.20;;;;;;;24.59;91.88;100876.97;5074046;28;20020;-92
2023/10/13 07:48:20;;;;;;;0.20;0.20;;;;;;;25.06;88.81;100895.34;5073990;28;20051;-92
2023/10/13 07:51:18;;;;;;;0.20;0.20;;;;;;;24.34;92.06;100869.78;5073656;28;20020;-92
2023/10/13 07:53:44;;;;;;;0.20;0.20;;;;;;;25.54;83.98;100896.50;5060774;28;20119;-92
2023/10/13 07:56:13;;;;;;;0.20;0.20;;;;;;;26.08;81.67;100884.38;5053866;28;20461;-92
2023/10/13 07:58:47;;;;;;;0.20;0.20;;;;;;;27.34;73.30;100895.47;5053240;28;20045;-93
2023/10/13 08:01:17;;;;;;;0.17;0.17;;;;;;;27.17;73.95;100894.84;5054334;28;20079;-93
2023/10/13 08:03:44;;;;;;;0.20;0.20;;;;;;;27.62;68.87;100887.94;5046183;28;20028;-94
2023/10/13 08:08:38;;;;;;;0.10;0.10;;;;;;;26.70;73.57;100894.75;5039828;28;20029;-90
2023/10/13 08:13:59;;;;;;;0.10;0.10;;;;;;;26.66;73.69;100894.06;5035882;28;20030;-91
2023/10/13 08:19:17;;;;;;;0.10;0.10;;;;;;;27.22;70.44;100902.00;5033600;28;20048;-91
2023/10/13 08:21:57;;;;;;;0.20;0.20;;;;;;;27.25;69.02;100889.66;5032940;28;20039;-92
2023/10/13 08:24:55;;;;;;;0.10;0.10;;;;;;;27.37;68.37;100874.53;5033917;28;20024;-92
2023/10/13 08:27:48;;;;;;;0.10;0.10;;;;;;;27.57;67.88;100894.22;5033794;28;20080;-91
2023/10/13 08:30:26;;;;;;;0.10;0.10;;;;;;;26.72;69.26;100895.09;5032595;28;20025;-90
2023/10/13 08:32:54;;;;;;;0.10;0.10;;;;;;;25.77;74.35;100874.72;5034907;28;20032;-91
2023/10/13 08:40:43;;;;;;;0.20;0.20;;;;;;;26.32;70.78;100878.41;5053312;28;20068;-92
2023/10/13 08:43:12;;;;;;;0.20;0.20;;;;;;;25.72;74.55;100883.81;5052099;28;20484;-92
2023/10/13 08:48:14;;;;;;;0.10;0.10;;;;;;;25.16;77.10;100879.22;5039619;28;20029;-91
2023/10/13 08:50:52;;;;;;;0.17;0.17;;;;;;;25.43;75.94;100878.91;5045073;28;20037;-91
2023/10/13 08:53:31;;;;;;;0.20;0.20;;;;;;;25.98;73.38;100879.81;5033387;28;20076;-92
2023/10/13 09:12:18;;;;;;;0.20;0.20;;;;;;;25.70;71.81;100880.63;5072771;28;20090;-92
2023/10/13 09:14:56;;;;;;;0.10;0.10;;;;;;;25.50;72.58;100890.09;5071682;28;20029;-92
2023/10/13 09:20:11;;;;;;;0.10;0.10;;;;;;;25.74;71.35;100884.16;5073078;28;20024;-90
2023/10/13 09:22:37;;;;;;;0.15;0.15;;;;;;;25.85;70.18;100862.69;5071945;28;20036;-91
2023/10/13 09:25:04;;;;;;;0.10;0.10;;;;;;;26.48;67.16;100880.38;5073629;28;20078;-91
2023/10/13 09:27:33;;;;;;;0.10;0.10;;;;;;;26.21;67.73;100875.06;5071935;28;20059;-90
2023/10/13 09:30:38;;;;;;;0.20;0.20;;;;;;;26.27;66.79;100878.97;5071973;28;20097;-92
2023/10/13 09:33:04;;;;;;;0.20;0.20;;;;;;;26.66;65.05;100879.78;5074374;28;20098;-91
2023/10/13 09:35:33;;;;;;;;;;;;;;;26.93;63.01;100877.25;5059893;28;20028;-91
2023/10/13 09:38:02;;;;;;;0.20;0.20;;;;;;;26.92;63.48;100875.66;5056924;28;20011;-91
2023/10/13 09:40:38;;;;;;;0.20;0.20;;;;;;;26.45;64.23;100856.38;5055727;28;20119;-91
2023/10/13 09:43:14;;;;;;;0.10;0.10;;;;;;;26.22;65.45;100859.56;5055480;28;20029;-91
2023/10/13 09:46:01;;;;;;;0.20;0.20;;;;;;;26.45;64.94;100867.81;5055606;28;20036;-91
2023/10/13 09:48:45;;;;;;;0.10;0.10;;;;;;;25.96;66.71;100875.81;5055146;28;20028;-91
2023/10/13 09:51:19;;;;;;;0.10;0.10;;;;;;;26.03;67.30;100873.53;5055575;28;20025;-91
2023/10/13 09:53:58;;;;;;;0.20;0.20;;;;;;;26.12;66.11;100873.69;5056270;28;20083;-92
2023/10/13 09:56:51;;;;;;;0.20;0.20;;;;;;;26.08;66.18;100860.78;5055083;28;20037;-91
2023/10/13 09:59:19;;;;;;;;;;;;;;;26.82;63.36;100879.66;5055105;28;20045;-91
2023/10/13 10:01:56;;;;;;;0.20;0.20;;;;;;;27.48;60.50;100877.00;5055671;28;19912;-92
2023/10/13 10:04:23;;;;;;;0.10;0.10;;;;;;;28.06;58.22;100877.28;5072055;28;20055;-91
2023/10/13 10:06:54;;;;;;;0.20;0.20;;;;;;;28.92;53.83;100865.28;5061560;28;20025;-91
2023/10/13 10:09:37;;;;;;;0.20;0.20;;;;;;;29.25;53.03;100884.81;5057036;28;20503;-91
2023/10/13 10:12:02;;;;;;;;;;;;;;;28.95;53.45;100878.69;5055517;28;20052;-91
2023/10/13 10:15:00;;;;;;;0.10;0.10;;;;;;;29.80;50.63;100871.28;5056295;28;19912;-94
2023/10/13 10:17:29;;;;;;;0.10;0.10;;;;;;;29.20;51.92;100852.66;5055722;28;20029;-91
2023/10/13 10:19:58;;;;;;;0.20;0.20;;;;;;;29.19;51.52;100865.38;5055186;28;20068;-94
2023/10/13 10:22:35;;;;;;;0.10;0.10;;;;;;;29.72;49.98;100858.53;5041597;28;20029;-93
2023/10/13 10:25:25;;;;;;;0.20;0.20;;;;;;;29.12;50.64;100865.66;5042332;28;20033;-93
2023/10/13 10:28:04;;;;;;;0.20;0.20;;;;;;;29.92;48.89;100866.66;5056964;28;20029;-94
2023/10/13 10:30:38;;;;;;;0.10;0.10;;;;;;;29.96;48.81;100850.84;5044112;28;20116;-92
2023/10/13 10:33:12;;;;;;;0.10;0.10;;;;;;;30.13;48.69;100851.31;5035813;28;20115;-94
2023/10/13 10:35:38;;;;;;;0.10;0.10;;;;;;;30.39;47.66;100827.94;5037039;28;20021;-92
2023/10/13 10:38:15;;;;;;;0.10;0.10;;;;;;;30.11;48.69;100851.00;5036819;28;20040;-94
2023/10/13 10:40:58;;;;;;;0.10;0.10;;;;;;;30.78;46.78;100846.91;5036954;28;20087;-94
2023/10/13 10:43:41;;;;;;;0.10;0.10;;;;;;;30.54;46.88;100840.31;5036064;28;20498;-95
2023/10/13 10:46:26;;;;;;;0.10;0.10;;;;;;;29.72;48.85;100845.03;5036574;28;20033;-93
2023/10/13 10:49:00;;;;;;;0.10;0.10;;;;;;;29.60;49.16;100836.56;5055534;28;20031;-93
2023/10/13 10:51:33;;;;;;;0.10;0.10;;;;;;;29.80;49.57;100830.34;5056893;28;20033;-93
2023/10/13 10:54:11;;;;;;;0.10;0.10;;;;;;;30.32;48.66;100842.66;5056516;28;20045;-92
2023/10/13 10:56:37;;;;;;;0.17;0.17;;;;;;;30.32;48.26;100842.66;5057268;28;20087;-93
2023/10/13 10:59:19;;;;;;;0.10;0.10;;;;;;;30.77;46.79;100833.84;5057178;28;20076;-94
2023/10/13 11:01:52;;;;;;;0.10;0.10;;;;;;;29.56;50.47;100833.88;5074871;28;20025;-92
2023/10/13 11:06:47;;;;;;;0.20;0.20;;;;;;;29.58;50.48;100830.53;5057960;28;20029;-94
2023/10/13 11:09:31;;;;;;;0.10;0.10;;;;;;;29.72;49.82;100816.34;5056158;28;20040;-93
2023/10/13 11:12:26;;;;;;;0.10;0.10;;;;;;;28.80;53.24;100823.25;5061326;28;20029;-92
2023/10/13 11:15:13;;;;;;;0.20;0.20;;;;;;;29.17;52.69;100827.78;5052299;28;20025;-93
2023/10/13 11:17:42;;;;;;;0.10;0.10;;;;;;;28.29;54.82;100812.28;5046037;28;20040;-93
2023/10/13 11:20:16;;;;;;;0.10;0.10;;;;;;;29.30;51.72;100783.88;5039170;28;20029;-93
2023/10/13 11:22:46;;;;;;;0.10;0.10;;;;;;;29.14;51.90;100811.56;5038514;28;20500;-92
2023/10/13 11:25:22;;;;;;;0.10;0.10;;;;;;;29.30;52.09;100815.41;5036592;28;20067;-93
2023/10/13 11:30:25;;;;;;;0.20;0.20;;;;;;;28.38;54.49;100800.88;5037551;28;20025;-93
2023/10/13 11:32:57;;;;;;;0.17;0.17;;;;;;;28.54;53.28;100794.88;5038898;28;20152;-93
2023/10/13 11:35:23;;;;;;;0.10;0.10;;;;;;;29.11;52.52;100803.91;5075670;28;20028;-92
2023/10/13 11:38:13;;;;;;;0.20;0.20;;;;;;;28.40;53.44;100801.22;5076600;28;20028;-94
2023/10/13 11:40:59;;;;;;;0.17;0.17;;;;;;;27.99;55.65;100800.38;5076012;28;20028;-93
2023/10/13 11:43:26;;;;;;;0.10;0.10;;;;;;;27.92;56.07;100777.78;5076437;28;20375;-95
2023/10/13 11:48:54;;;;;;;0.20;0.20;;;;;;;27.89;55.78;100779.50;5064198;28;20040;-93
2023/10/13 11:51:32;;;;;;;0.20;0.20;;;;;;;27.38;57.62;100784.72;5037776;28;20495;-95
2023/10/13 11:53:58;;;;;;;0.13;0.13;;;;;;;27.37;57.21;100775.31;5038274;28;20180;-94
2023/10/13 11:56:24;;;;;;;0.10;0.10;;;;;;;27.59;56.89;100780.22;5038257;28;20040;-94
2023/10/13 11:58:50;;;;;;;0.10;0.10;;;;;;;27.90;57.21;100777.44;5040117;28;20513;-94
2023/10/13 12:01:20;;;;;;;0.20;0.20;;;;;;;27.95;56.14;100782.53;5043647;28;20025;-94
2023/10/13 12:07:02;;;;;;;0.10;0.10;;;;;;;27.55;57.72;100762.44;5071920;28;20044;-93
2023/10/13 12:11:48;;;;;;;0.10;0.10;;;;;;;27.33;59.64;100762.47;5056045;28;20048;-93
2023/10/13 12:14:21;;;;;;;0.10;0.10;;;;;;;27.90;57.07;100771.72;5054763;28;20112;-92
2023/10/13 12:16:53;;;;;;;0.10;0.10;;;;;;;26.94;60.23;100763.84;5055863;28;20021;-94
2023/10/13 12:19:28;;;;;;;0.13;0.13;;;;;;;27.26;59.03;100762.69;5054155;28;20477;-94
2023/10/13 12:21:55;;;;;;;0.20;0.20;;;;;;;27.61;58.81;100761.38;5054762;28;20119;-94
2023/10/13 12:27:14;;;;;;;0.20;0.20;;;;;;;26.95;61.08;100754.78;5055419;28;20469;-92
2023/10/13 12:29:46;;;;;;;0.10;0.10;;;;;;;27.66;57.86;100755.03;5055307;28;20017;-92
2023/10/13 12:32:12;;;;;;;0.10;0.10;;;;;;;27.11;58.93;100748.97;5050604;28;20171;-92
2023/10/13 12:51:20;;;;;;;0.10;0.10;;;;;;;26.83;62.96;100744.22;5034543;28;20052;-91
2023/10/13 12:53:52;;;;;;;0.17;0.17;;;;;;;27.21;62.05;100729.81;5034192;28;20025;-91
2023/10/13 12:56:25;;;;;;;0.20;0.20;;;;;;;26.89;62.67;100725.25;5047062;28;20021;-90
2023/10/13 12:58:51;;;;;;;0.10;0.10;;;;;;;27.42;60.70;100716.78;5052437;28;20049;-91
2023/10/13 13:01:24;;;;;;;0.10;0.10;;;;;;;27.65;59.92;100729.78;5054266;28;20021;-92
2023/10/13 13:03:55;;;;;;;0.10;0.10;;;;;;;26.96;61.50;100719.28;5063206;28;20090;-89
2023/10/13 13:06:24;;;;;;;0.13;0.13;;;;;;;27.36;61.22;100719.44;5081417;28;20029;-91
2023/10/13 13:08:58;;;;;;;0.10;0.10;;;;;;;27.92;59.74;100729.16;5073483;28;20395;-91
2023/10/13 13:11:24;;;;;;;0.10;0.10;;;;;;;27.07;62.58;100702.59;5076795;28;20024;-90
2023/10/13 13:13:50;;;;;;;0.20;0.20;;;;;;;27.46;61.66;100723.16;5076574;28;20035;-91
2023/10/13 13:16:20;;;;;;;0.10;0.10;;;;;;;27.12;62.49;100693.44;5074835;28;20035;-91
2023/10/13 13:18:45;;;;;;;0.20;0.20;;;;;;;26.85;66.13;100724.59;5072846;28;20388;-91
2023/10/13 13:21:19;;;;;;;0.10;0.10;;;;;;;27.47;63.55;100713.31;5072812;28;20032;-92
2023/10/13 13:23:46;;;;;;;0.15;0.15;;;;;;;27.30;64.35;100709.09;5072737;28;20024;-91
2023/10/13 13:26:17;;;;;;;0.20;0.20;;;;;;;27.26;63.84;100697.78;5071995;28;20036;-92
2023/10/13 13:28:50;;;;;;;0.20;0.20;;;;;;;26.88;65.57;100715.88;5071995;28;20025;-88
2023/10/13 13:31:16;;;;;;;0.10;0.10;;;;;;;26.82;65.97;100708.38;5070074;28;20016;-87
2023/10/13 13:33:44;;;;;;;0.20;0.20;;;;;;;26.90;65.18;100704.03;5058350;28;20029;-88
2023/10/13 13:36:16;;;;;;;0.13;0.13;;;;;;;26.81;65.45;100690.47;5041475;28;20507;-88
2023/10/13 13:38:48;;;;;;;0.10;0.10;;;;;;;26.80;67.30;100708.06;5050265;28;20029;-88
2023/10/13 13:41:17;;;;;;;0.20;0.20;;;;;;;26.48;69.60;100692.84;5048584;28;20446;-88
2023/10/13 13:46:24;;;;;;;0.10;0.10;;;;;;;26.48;70.70;100704.28;5039265;28;20032;-89
2023/10/13 13:48:51;;;;;;;0.20;0.20;;;;;;;25.92;73.04;100655.63;5040844;28;20017;-87
2023/10/13 13:51:26;;;;;;;0.20;0.20;;;;;;;26.45;72.31;100696.63;5039142;28;20171;-88
2023/10/13 13:53:52;;;;;;;0.10;0.10;;;;;;;26.21;74.15;100689.69;5039960;28;20029;-88
2023/10/13 13:56:18;;;;;;;0.20;0.20;;;;;;;26.38;73.24;100680.53;5041123;28;20021;-88
2023/10/13 13:58:52;;;;;;;0.10;0.10;;;;;;;26.32;74.11;100688.06;5039550;28;20144;-89
2023/10/13 14:01:19;;;;;;;0.20;0.20;;;;;;;25.79;77.80;100689.84;5042342;28;20025;-89
2023/10/13 14:03:47;;;;;;;0.20;0.20;;;;;;;25.80;79.54;100694.28;5042535;28;20018;-90
2023/10/13 14:06:23;;;;;;;0.10;0.10;;;;;;;26.35;77.39;100697.75;5040202;28;20014;-91
2023/10/13 14:08:59;;;;;;;0.20;0.20;;;;;;;25.91;78.83;100689.03;5041260;28;20024;-93
2023/10/13 14:16:53;;;;;;;0.20;0.20;;;;;;;26.09;79.18;100677.81;5041294;28;20036;-91
2023/10/13 14:19:26;;;;;;;0.20;0.20;;;;;;;25.75;80.32;100674.91;5040842;28;20108;-91
2023/10/13 14:21:55;;;;;;;0.20;0.20;;;;;;;25.68;81.43;100680.81;5046801;28;20057;-91
2023/10/13 14:24:45;;;;;;;0.13;0.13;;;;;;;25.10;85.93;100678.88;5045723;28;20029;-90
2023/10/13 14:27:08;;;;;;;0.17;0.17;;;;;;;25.24;84.59;100658.50;5038696;28;20440;-90
2023/10/13 14:29:40;;;;;;;0.20;0.20;;;;;;;25.20;85.65;100654.19;5031838;28;20037;-90
2023/10/13 14:32:11;;;;;;;0.20;0.20;;;;;;;25.53;84.22;100677.59;5032710;28;20027;-90
2023/10/13 14:34:37;;;;;;;0.20;0.20;;;;;;;25.18;85.91;100663.16;5065614;28;20020;-90
2023/10/13 14:37:04;;;;;;;0.10;0.10;;;;;;;25.22;85.78;100663.88;5073525;28;20024;-90
2023/10/13 14:39:30;;;;;;;0.20;0.20;;;;;;;25.23;86.40;100673.19;5073703;28;20032;-90
2023/10/13 14:41:55;;;;;;;0.10;0.10;;;;;;;24.86;88.62;100677.50;5073397;28;20101;-90
2023/10/13 14:44:26;;;;;;;0.10;0.10;;;;;;;24.56;90.31;100671.81;5074559;28;20480;-90
2023/10/13 14:46:54;;;;;;;0.20;0.20;;;;;;;24.80;88.98;100677.25;5074274;28;20024;-90
2023/10/13 14:49:20;;;;;;;0.20;0.20;;;;;;;24.95;88.66;100677.66;5073105;28;20060;-90
2023/10/13 14:51:46;;;;;;;0.20;0.20;;;;;;;24.66;89.54;100649.19;5073245;28;20480;-90
2023/10/13 14:54:14;;;;;;;0.20;0.20;;;;;;;24.86;89.32;100681.16;5072642;28;20029;-90
2023/10/13 14:56:42;;;;;;;0.20;0.20;;;;;;;24.71;90.25;100672.19;5072935;28;20468;-89
2023/10/13 14:59:14;;;;;;;0.20;0.20;;;;;;;24.46;91.27;100664.38;5073118;28;20045;-90
2023/10/13 15:01:40;;;;;;;0.20;0.20;;;;;;;24.57;91.08;100678.28;5073263;28;20029;-89
2023/10/13 15:04:05;;;;;;;0.20;0.20;;;;;;;24.33;92.64;100671.19;5060879;28;20044;-90
2023/10/13 15:06:32;;;;;;;0.20;0.20;;;;;;;24.46;91.34;100667.19;5053847;28;20083;-90
2023/10/13 15:08:59;;;;;;;0.20;0.20;;;;;;;24.29;92.60;100669.25;5052742;28;20021;-90
2023/10/13 15:11:38;;;;;;;0.20;0.20;;;;;;;24.35;92.67;100680.91;5052787;28;20029;-89
2023/10/13 15:14:06;;;;;;;0.20;0.20;;;;;;;24.27;93.13;100673.75;5052890;28;20448;-89
2023/10/13 15:16:33;;;;;;;0.20;0.20;;;;;;;24.14;94.21;100675.75;5052365;28;20041;-89
2023/10/13 15:18:59;;;;;;;0.20;0.20;;;;;;;24.15;94.29;100683.00;5052949;28;20033;-90
2023/10/13 15:21:30;;;;;;;0.20;0.20;;;;;;;23.95;94.70;100686.72;5052511;28;20388;-91
2023/10/13 15:23:59;;;;;;;0.20;0.20;;;;;;;23.94;95.11;100679.44;5053065;28;20040;-90
2023/10/13 15:26:27;;;;;;;0.20;0.20;;;;;;;23.86;95.60;100672.31;5053728;28;20059;-90